Time;durP1;ratioP1;P1;durP2;ratioP2;P2;SDS_P1;SDS_P2;PMS_P1;PMS_P2;Temp;Humidity;BMP_temperature;BMP_pressure;BME280_temperature;BME280_humidity;BME280_pressure;Samples;Min_cycle;Max_cycle;Signal;HPM_P1;HPM_P2
2023/03/23 00:02:28;;;;;;;8.95;2.67;;;;;;;9.87;71.36;97870.78;5035307;28;20075;-51
2023/03/23 00:04:54;;;;;;;5.82;2.55;;;;;;;9.84;71.26;97876.09;5036490;28;20048;-49
2023/03/23 00:07:21;;;;;;;5.97;2.17;;;;;;;9.80;70.98;97884.84;5032525;28;20102;-48
2023/03/23 00:09:52;;;;;;;5.95;0.93;;;;;;;9.81;71.66;97890.84;5031825;28;20467;-48
2023/03/23 00:12:20;;;;;;;3.78;2.08;;;;;;;9.82;71.33;97889.94;5043140;28;20558;-48
2023/03/23 00:14:46;;;;;;;8.85;2.72;;;;;;;9.79;71.78;97892.66;5035394;28;20082;-49
2023/03/23 00:17:14;;;;;;;8.57;1.88;;;;;;;9.77;71.49;97895.28;5038336;28;20083;-49
2023/03/23 00:19:44;;;;;;;3.80;2.53;;;;;;;9.82;71.96;97900.28;5047092;28;20507;-48
2023/03/23 00:22:10;;;;;;;7.57;3.40;;;;;;;9.78;72.11;97896.97;5054173;28;20123;-48
2023/03/23 00:24:36;;;;;;;9.90;2.63;;;;;;;9.84;72.10;97911.44;5032543;28;20469;-48
2023/03/23 00:27:03;;;;;;;7.20;1.05;;;;;;;9.86;71.59;97902.72;5037580;28;20527;-48
2023/03/23 00:29:28;;;;;;;12.65;2.53;;;;;;;9.85;71.81;97895.00;5046008;28;20045;-49
2023/03/23 00:31:56;;;;;;;5.38;1.83;;;;;;;9.79;71.73;97913.34;5021688;28;20056;-50
2023/03/23 00:34:24;;;;;;;7.88;1.00;;;;;;;9.77;72.13;97914.22;5024157;28;20595;-51
2023/03/23 00:36:56;;;;;;;6.70;1.90;;;;;;;9.76;71.48;97914.25;4999352;28;20108;-49
2023/03/23 00:39:24;;;;;;;6.80;2.33;;;;;;;9.69;71.88;97913.63;5039673;28;20037;-48
2023/03/23 00:41:50;;;;;;;4.78;1.60;;;;;;;9.65;71.52;97922.38;5027648;28;20075;-50
2023/03/23 00:44:18;;;;;;;11.55;2.20;;;;;;;9.59;71.85;97917.44;5031918;28;20518;-49
2023/03/23 00:46:48;;;;;;;11.43;2.25;;;;;;;9.58;71.46;97920.91;5038659;28;20554;-49
2023/03/23 00:49:16;;;;;;;7.63;2.00;;;;;;;9.56;71.72;97927.88;5021227;28;20051;-48
2023/03/23 00:51:42;;;;;;;10.15;2.83;;;;;;;9.50;71.49;97929.75;5015339;28;20044;-49
2023/03/23 00:54:09;;;;;;;5.25;2.65;;;;;;;9.46;72.18;97938.50;5019599;28;20049;-49
2023/03/23 00:56:34;;;;;;;9.27;3.22;;;;;;;9.43;71.76;97930.84;5011283;28;20076;-50
2023/03/23 00:59:00;;;;;;;9.30;3.65;;;;;;;9.38;71.63;97936.16;5006487;28;20492;-51
2023/03/23 01:01:26;;;;;;;7.55;1.92;;;;;;;9.38;71.99;97943.06;5031353;28;20181;-50
2023/03/23 01:03:53;;;;;;;11.75;3.20;;;;;;;9.36;71.45;97960.38;5039053;28;20044;-49
2023/03/23 01:06:18;;;;;;;8.40;2.58;;;;;;;9.32;71.97;97967.34;5047673;28;20435;-49
2023/03/23 01:08:45;;;;;;;4.72;2.10;;;;;;;9.28;71.76;97980.44;5045007;28;20045;-49
2023/03/23 01:11:14;;;;;;;8.07;2.45;;;;;;;9.30;71.68;97970.88;5039812;28;20053;-49
2023/03/23 01:13:41;;;;;;;9.30;2.00;;;;;;;9.26;71.46;97977.88;5029249;28;20049;-49
2023/03/23 01:16:08;;;;;;;9.43;2.00;;;;;;;9.21;71.42;97972.00;5024558;28;20116;-48
2023/03/23 01:18:33;;;;;;;4.85;2.13;;;;;;;9.16;71.42;97967.00;5007264;28;20033;-47
2023/03/23 01:21:04;;;;;;;10.23;3.10;;;;;;;9.15;71.26;97985.13;5046971;28;20044;-49
2023/03/23 01:23:30;;;;;;;2.70;1.73;;;;;;;9.10;71.09;97982.66;5048427;28;20090;-50
2023/03/23 01:25:57;;;;;;;9.02;2.38;;;;;;;9.05;70.92;97981.97;5044757;28;20120;-48
2023/03/23 01:28:23;;;;;;;5.32;1.70;;;;;;;9.04;70.92;97988.84;5029169;28;20100;-51
2023/03/23 01:30:48;;;;;;;7.65;1.92;;;;;;;9.00;70.99;97987.25;5032176;28;20056;-48
2023/03/23 01:33:14;;;;;;;4.55;2.35;;;;;;;8.96;70.56;97990.81;5032989;28;20128;-47
2023/03/23 01:35:39;;;;;;;6.70;1.73;;;;;;;8.84;70.26;97990.28;5031583;28;20045;-49
2023/03/23 01:38:05;;;;;;;5.07;1.98;;;;;;;8.88;70.52;97998.78;5024666;28;20051;-49
2023/03/23 01:40:30;;;;;;;4.18;1.90;;;;;;;8.84;70.71;98007.50;5017268;28;20997;-50
2023/03/23 01:42:56;;;;;;;8.25;2.03;;;;;;;8.73;71.07;98006.09;5025434;28;20048;-50
2023/03/23 01:48:07;;;;;;;4.90;0.93;;;;;;;8.69;70.93;98014.81;5016779;27;20418;-50
2023/03/23 01:50:40;;;;;;;9.50;1.13;;;;;;;8.64;70.44;98010.66;5018303;28;20154;-49
2023/03/23 01:53:08;;;;;;;6.82;1.38;;;;;;;8.58;70.47;98027.16;5016421;28;20077;-50
2023/03/23 01:55:36;;;;;;;7.13;0.60;;;;;;;8.58;71.03;98022.81;5005361;28;20045;-48
2023/03/23 01:58:02;;;;;;;4.10;0.60;;;;;;;8.56;70.50;98023.75;4984400;28;20088;-48
2023/03/23 02:00:30;;;;;;;6.32;0.50;;;;;;;8.52;70.10;98028.16;5006200;28;21160;-49
2023/03/23 02:02:56;;;;;;;3.42;0.35;;;;;;;8.47;70.76;98024.81;5005798;28;20045;-47
2023/03/23 02:05:40;;;;;;;4.97;0.70;;;;;;;8.42;70.50;98027.53;5001467;28;20128;-49
2023/03/23 02:08:09;;;;;;;6.30;0.98;;;;;;;8.40;69.90;98034.47;5045656;28;20045;-49
2023/03/23 02:10:35;;;;;;;3.17;1.02;;;;;;;8.40;70.55;98039.63;5007776;28;20058;-50
2023/03/23 02:13:04;;;;;;;3.42;0.68;;;;;;;8.33;70.43;98048.41;5008818;28;20129;-49
2023/03/23 02:26:54;;;;;;;2.83;1.30;;;;;;;8.14;69.62;98059.19;5014521;28;20395;-48
2023/03/23 02:29:47;;;;;;;5.53;1.50;;;;;;;8.13;70.45;98062.66;4983226;28;20862;-48
2023/03/23 02:34:56;;;;;;;7.40;1.17;;;;;;;8.53;69.07;98062.50;5074227;27;20403;-47
2023/03/23 02:37:46;;;;;;;6.88;0.85;;;;;;;8.16;69.97;98066.88;5039474;28;20124;-49
2023/03/23 02:42:55;;;;;;;6.00;1.90;;;;;;;8.07;70.52;98073.13;5065210;27;20394;-48
2023/03/23 02:45:23;;;;;;;6.30;1.65;;;;;;;8.05;70.27;98064.56;5003555;28;20046;-50
2023/03/23 02:47:52;;;;;;;6.47;0.70;;;;;;;8.01;70.18;98062.97;4995990;28;20045;-47
2023/03/23 02:50:22;;;;;;;6.10;1.73;;;;;;;7.97;70.80;98050.13;5009708;28;20033;-51
2023/03/23 02:52:50;;;;;;;4.90;0.40;;;;;;;7.94;70.59;98060.50;4992770;28;20042;-50
2023/03/23 02:55:17;;;;;;;4.97;1.65;;;;;;;7.92;71.32;98054.56;5000741;28;20050;-47
2023/03/23 02:57:45;;;;;;;6.85;0.93;;;;;;;7.90;70.27;98056.31;4997250;28;20061;-48
2023/03/23 03:00:14;;;;;;;4.57;2.15;;;;;;;7.88;71.30;98058.09;4991570;28;20034;-49
2023/03/23 03:02:44;;;;;;;10.52;0.93;;;;;;;7.85;70.70;98060.75;4993623;28;20050;-47
2023/03/23 03:07:59;;;;;;;6.05;1.48;;;;;;;7.80;70.35;98071.16;5103055;27;20394;-48
2023/03/23 03:16:03;;;;;;;3.78;0.40;;;;;;;7.76;70.88;98084.13;5077612;27;20787;-47
2023/03/23 03:18:35;;;;;;;6.22;0.98;;;;;;;7.71;71.95;98077.38;5006031;28;20065;-48
2023/03/23 03:21:06;;;;;;;10.65;1.13;;;;;;;7.72;71.22;98078.22;5007443;28;20508;-48
2023/03/23 03:23:34;;;;;;;14.18;1.58;;;;;;;7.72;71.16;98080.81;5006493;28;20550;-48
2023/03/23 03:26:04;;;;;;;7.43;1.05;;;;;;;7.71;70.50;98079.13;5024503;28;20057;-48
2023/03/23 03:28:32;;;;;;;9.60;0.73;;;;;;;7.67;72.27;98088.63;5006476;28;20049;-50
2023/03/23 03:31:01;;;;;;;7.13;0.98;;;;;;;7.65;71.91;98082.69;5004144;28;20083;-51
2023/03/23 03:33:30;;;;;;;6.57;1.13;;;;;;;7.65;72.13;98094.69;5013195;28;20046;-51
2023/03/23 03:36:00;;;;;;;9.88;1.45;;;;;;;7.66;71.97;98084.34;5016210;28;20136;-47
2023/03/23 03:38:27;;;;;;;5.60;0.80;;;;;;;7.65;72.05;98087.81;5013238;28;20050;-47
2023/03/23 03:40:56;;;;;;;6.55;1.00;;;;;;;7.64;72.62;98091.28;5011187;28;20148;-48
2023/03/23 03:43:21;;;;;;;8.30;0.80;;;;;;;7.62;72.17;98087.88;4995391;28;20058;-47
2023/03/23 03:45:47;;;;;;;6.10;1.17;;;;;;;7.61;71.17;98091.34;5020408;28;20061;-48
2023/03/23 03:48:12;;;;;;;10.93;1.17;;;;;;;7.59;71.35;98085.38;5030708;28;20049;-47
2023/03/23 03:50:38;;;;;;;8.70;0.70;;;;;;;7.57;72.33;98084.59;5016821;28;20061;-48
2023/03/23 03:53:05;;;;;;;9.18;0.85;;;;;;;7.57;71.38;98095.72;5003674;28;20053;-48
2023/03/23 03:55:35;;;;;;;10.95;1.02;;;;;;;7.54;72.00;98094.94;4995603;28;20069;-48
2023/03/23 03:58:02;;;;;;;9.40;1.15;;;;;;;7.53;71.56;98088.09;5036656;28;20046;-47
2023/03/23 04:00:28;;;;;;;30.67;1.50;;;;;;;7.52;72.53;98087.25;5014028;28;20057;-48
2023/03/23 04:02:54;;;;;;;9.35;0.70;;;;;;;7.51;71.55;98089.84;5037195;28;20044;-48
2023/03/23 04:05:22;;;;;;;9.63;0.80;;;;;;;7.47;72.78;98094.25;5026779;28;20512;-47
2023/03/23 04:07:51;;;;;;;9.23;1.13;;;;;;;7.48;72.45;98088.19;5010840;28;20056;-47
2023/03/23 04:10:19;;;;;;;4.45;0.90;;;;;;;7.48;72.50;98090.78;5020120;28;20056;-48
2023/03/23 04:12:45;;;;;;;8.27;0.98;;;;;;;7.46;72.21;98092.53;5034842;28;20054;-48
2023/03/23 04:15:11;;;;;;;4.72;0.50;;;;;;;7.46;72.19;98087.38;5031040;28;20041;-48
2023/03/23 04:17:37;;;;;;;8.60;1.50;;;;;;;7.45;72.60;98096.84;5030278;28;20057;-48
2023/03/23 04:20:08;;;;;;;8.88;0.80;;;;;;;7.40;71.71;98090.91;5020760;28;20049;-51
2023/03/23 04:22:33;;;;;;;10.18;0.82;;;;;;;7.33;72.88;98097.13;5023908;28;21515;-47
2023/03/23 04:25:04;;;;;;;14.30;1.77;;;;;;;7.25;72.70;98089.53;5022681;28;20041;-48
2023/03/23 04:27:29;;;;;;;6.78;1.50;;;;;;;7.20;71.98;98099.91;4993870;28;20045;-47
2023/03/23 04:29:57;;;;;;;6.15;1.23;;;;;;;7.19;72.73;98100.81;5010524;28;20110;-48
2023/03/23 04:32:24;;;;;;;7.57;1.50;;;;;;;7.14;72.48;98107.78;5018632;28;20041;-47
2023/03/23 04:34:50;;;;;;;12.20;1.83;;;;;;;7.15;73.09;98106.91;5001878;28;20050;-47
2023/03/23 04:37:16;;;;;;;4.85;0.98;;;;;;;7.11;71.94;98118.13;5004938;28;20099;-49
2023/03/23 04:39:45;;;;;;;13.43;0.93;;;;;;;7.11;71.91;98113.00;5019415;28;20050;-49
2023/03/23 04:42:11;;;;;;;4.00;0.88;;;;;;;7.11;72.49;98113.00;5024890;28;20041;-50
2023/03/23 04:44:36;;;;;;;6.57;0.75;;;;;;;7.12;72.99;98112.09;5020023;28;20037;-48
2023/03/23 04:47:02;;;;;;;9.05;1.77;;;;;;;7.10;72.80;98113.88;5012619;28;20394;-47
2023/03/23 04:49:29;;;;;;;10.20;1.13;;;;;;;7.08;73.28;98107.91;4999596;28;20103;-48
2023/03/23 04:51:56;;;;;;;7.55;1.40;;;;;;;7.07;73.26;98107.03;4999448;28;20694;-50
2023/03/23 04:54:22;;;;;;;9.20;1.23;;;;;;;7.02;73.39;98114.00;5015168;28;20053;-50
2023/03/23 04:56:47;;;;;;;14.25;1.95;;;;;;;7.03;72.54;98120.00;5016803;28;20046;-49
2023/03/23 04:59:14;;;;;;;7.88;1.80;;;;;;;7.00;73.42;98126.06;5019653;28;20052;-48
2023/03/23 05:01:45;;;;;;;10.32;1.45;;;;;;;6.99;73.52;98131.25;5021360;28;20054;-48
2023/03/23 05:04:12;;;;;;;6.07;1.10;;;;;;;6.98;72.20;98126.97;5021637;28;20046;-47
2023/03/23 05:06:38;;;;;;;7.07;0.70;;;;;;;6.96;72.95;98123.59;5005258;28;20073;-48
2023/03/23 05:09:04;;;;;;;6.82;1.02;;;;;;;6.96;73.18;98128.72;5008883;28;20077;-48
2023/03/23 05:11:30;;;;;;;6.53;1.20;;;;;;;6.94;72.60;98132.19;5019488;28;20057;-48
2023/03/23 05:13:55;;;;;;;10.30;2.00;;;;;;;6.93;72.17;98130.47;5021028;28;20041;-48
2023/03/23 05:16:21;;;;;;;16.95;1.42;;;;;;;6.92;72.86;98133.94;5005585;28;20055;-48
2023/03/23 05:18:47;;;;;;;5.50;0.93;;;;;;;6.86;73.58;98131.47;5020753;28;20057;-47
2023/03/23 05:21:14;;;;;;;12.80;1.67;;;;;;;6.85;72.17;98132.34;5011177;28;20106;-48
2023/03/23 05:23:39;;;;;;;11.30;1.20;;;;;;;6.87;72.90;98134.88;5002660;28;20052;-51
2023/03/23 05:26:06;;;;;;;8.40;1.52;;;;;;;6.82;72.50;98127.25;5015299;28;20574;-48
2023/03/23 05:28:32;;;;;;;9.40;1.63;;;;;;;6.76;73.80;98127.38;5012388;28;20061;-48
2023/03/23 05:30:57;;;;;;;16.10;1.83;;;;;;;6.80;72.47;98126.44;5009907;28;20347;-47
2023/03/23 05:33:23;;;;;;;14.85;1.63;;;;;;;6.81;72.71;98125.56;5008229;28;20045;-47
2023/03/23 05:35:48;;;;;;;9.95;0.88;;;;;;;6.80;72.24;98131.59;5009635;28;20085;-47
2023/03/23 05:38:16;;;;;;;8.48;1.10;;;;;;;6.80;72.15;98132.41;5007302;28;20485;-48
2023/03/23 05:40:42;;;;;;;10.05;1.42;;;;;;;6.76;73.14;98124.81;5007520;28;20065;-46
2023/03/23 05:43:08;;;;;;;11.75;1.13;;;;;;;6.79;72.17;98132.47;5008792;28;20049;-48
2023/03/23 05:45:34;;;;;;;13.65;2.13;;;;;;;6.78;73.00;98138.47;5009156;28;20084;-48
2023/03/23 05:48:00;;;;;;;13.57;1.70;;;;;;;6.76;73.31;98140.25;5017348;28;20075;-48
2023/03/23 05:50:27;;;;;;;10.02;2.42;;;;;;;6.72;73.27;98136.03;5003229;28;20100;-47
2023/03/23 05:52:54;;;;;;;8.63;1.67;;;;;;;6.73;72.53;98142.88;5020231;28;20136;-47
2023/03/23 05:55:20;;;;;;;11.25;1.25;;;;;;;6.69;72.34;98145.47;5003012;28;20053;-47
2023/03/23 05:57:46;;;;;;;11.57;1.67;;;;;;;6.69;72.33;98142.91;5021532;28;20056;-47
2023/03/23 06:00:14;;;;;;;5.85;0.73;;;;;;;6.68;73.27;98136.06;5020648;28;20046;-47
2023/03/23 06:02:43;;;;;;;6.07;1.27;;;;;;;6.65;73.54;98136.13;4993524;28;20115;-48
2023/03/23 06:05:10;;;;;;;7.45;1.33;;;;;;;6.62;73.54;98137.91;5022346;28;20038;-48
2023/03/23 06:07:37;;;;;;;10.07;1.42;;;;;;;6.63;73.83;98135.31;5009181;28;20056;-49
2023/03/23 06:10:04;;;;;;;8.00;0.98;;;;;;;6.62;73.08;98131.03;5014551;28;20068;-51
2023/03/23 06:12:31;;;;;;;7.60;1.50;;;;;;;6.61;72.54;98136.19;5011720;28;20096;-48
2023/03/23 06:14:57;;;;;;;7.68;0.82;;;;;;;6.61;74.22;98131.91;5010969;28;20132;-50
2023/03/23 06:17:22;;;;;;;6.68;0.90;;;;;;;6.61;73.52;98129.34;5013551;28;20053;-49
2023/03/23 06:19:50;;;;;;;13.63;1.40;;;;;;;6.63;73.10;98132.75;5005212;28;20046;-49
2023/03/23 06:22:16;;;;;;;5.63;0.73;;;;;;;6.62;73.26;98128.47;5005944;28;20103;-47
2023/03/23 06:24:42;;;;;;;8.38;0.90;;;;;;;6.60;74.25;98119.94;4996520;28;20049;-47
2023/03/23 06:27:08;;;;;;;7.32;0.95;;;;;;;6.61;73.25;98123.34;5016525;28;20382;-48
2023/03/23 06:29:34;;;;;;;11.88;0.80;;;;;;;6.65;74.14;98122.41;5027778;28;20045;-48
2023/03/23 06:32:02;;;;;;;2.65;0.70;;;;;;;6.62;74.32;98125.06;5008725;28;20587;-48
2023/03/23 06:34:29;;;;;;;7.35;0.93;;;;;;;6.65;73.14;98123.25;5016673;28;20069;-48
2023/03/23 06:36:55;;;;;;;5.15;1.23;;;;;;;6.69;72.72;98122.31;5019367;28;20143;-48
2023/03/23 06:39:22;;;;;;;7.57;1.25;;;;;;;6.66;73.38;98117.22;5019384;28;20075;-48
2023/03/23 06:41:48;;;;;;;4.57;1.23;;;;;;;6.72;72.66;98116.28;5024645;28;20052;-48
2023/03/23 06:44:13;;;;;;;7.68;1.40;;;;;;;6.75;72.70;98130.84;5011549;28;20041;-47
2023/03/23 06:46:40;;;;;;;10.07;1.52;;;;;;;6.80;73.82;98124.69;4997981;28;20590;-47
2023/03/23 06:49:07;;;;;;;9.40;1.45;;;;;;;6.79;73.29;98122.19;5019343;28;20049;-47
2023/03/23 06:51:32;;;;;;;6.53;1.38;;;;;;;6.88;72.64;98121.13;4999112;28;20048;-47
2023/03/23 06:53:58;;;;;;;5.82;0.50;;;;;;;6.91;73.20;98127.09;5004680;28;20042;-47
2023/03/23 06:56:24;;;;;;;12.43;1.45;;;;;;;6.98;72.69;98132.97;5020690;28;20132;-47
2023/03/23 06:58:50;;;;;;;6.25;1.20;;;;;;;7.01;74.10;98138.06;5012937;28;20045;-47
2023/03/23 07:01:16;;;;;;;15.10;0.93;;;;;;;7.10;72.98;98136.19;5013907;28;20056;-47
2023/03/23 07:03:42;;;;;;;12.25;1.88;;;;;;;7.16;72.86;98142.06;5016453;28;20061;-48
2023/03/23 07:06:08;;;;;;;7.82;1.17;;;;;;;7.26;73.68;98131.59;4995941;28;20049;-46
2023/03/23 07:08:34;;;;;;;7.55;1.45;;;;;;;7.37;73.49;98128.78;5006305;28;20096;-47
2023/03/23 07:11:00;;;;;;;5.05;1.10;;;;;;;7.47;72.62;98130.31;5014483;28;20764;-48
2023/03/23 07:13:26;;;;;;;7.40;1.27;;;;;;;7.58;72.48;98132.66;4998180;28;20054;-47
2023/03/23 07:15:52;;;;;;;6.30;0.90;;;;;;;7.68;73.58;98134.16;5006597;28;20518;-47
2023/03/23 07:18:18;;;;;;;10.50;1.00;;;;;;;7.79;73.59;98136.47;5006145;28;20046;-49
2023/03/23 07:20:51;;;;;;;9.52;1.23;;;;;;;7.91;72.63;98134.50;5009880;28;20054;-46
2023/03/23 07:23:17;;;;;;;15.20;1.38;;;;;;;7.98;72.28;98136.91;5023092;28;20054;-46
2023/03/23 07:25:44;;;;;;;12.70;1.40;;;;;;;8.03;73.40;98128.22;5022630;28;20061;-48
2023/03/23 07:28:10;;;;;;;9.55;1.20;;;;;;;8.09;73.40;98128.06;5026931;28;20041;-48
2023/03/23 07:30:37;;;;;;;11.25;2.25;;;;;;;8.14;72.02;98130.56;5018596;28;20100;-49
2023/03/23 07:33:05;;;;;;;13.02;1.27;;;;;;;8.40;72.62;98118.72;5003863;28;20569;-51
2023/03/23 07:35:31;;;;;;;10.05;1.75;;;;;;;9.11;72.20;98113.47;5020042;28;20048;-51
2023/03/23 07:37:57;;;;;;;9.18;1.13;;;;;;;9.92;71.33;98121.47;5022949;28;20053;-47
2023/03/23 07:40:22;;;;;;;9.55;1.83;;;;;;;10.58;69.60;98119.41;5007873;28;20678;-49
2023/03/23 07:42:53;;;;;;;7.78;1.17;;;;;;;11.19;67.56;98118.16;5023387;28;20061;-48
2023/03/23 07:45:19;;;;;;;7.43;1.67;;;;;;;11.69;67.55;98117.16;5018423;28;21975;-48
2023/03/23 07:47:45;;;;;;;9.35;1.38;;;;;;;12.08;66.25;98115.69;5017522;28;20133;-48
2023/03/23 07:50:12;;;;;;;10.82;1.33;;;;;;;12.52;64.91;98113.94;5012489;28;21269;-47
2023/03/23 07:52:38;;;;;;;8.23;1.05;;;;;;;12.67;63.97;98116.81;4984606;28;20215;-49
2023/03/23 07:55:05;;;;;;;13.30;1.20;;;;;;;12.79;62.99;98108.47;5017908;28;20041;-48
2023/03/23 07:57:32;;;;;;;9.25;1.05;;;;;;;12.92;62.96;98107.94;5016778;28;20078;-48
2023/03/23 07:59:58;;;;;;;9.82;1.08;;;;;;;13.08;62.63;98111.53;5014542;28;21285;-47
2023/03/23 08:02:24;;;;;;;8.75;1.60;;;;;;;13.27;62.90;98100.31;5017287;28;20052;-52
2023/03/23 08:04:50;;;;;;;8.13;0.88;;;;;;;13.68;62.55;98109.75;5007893;28;20095;-47
2023/03/23 08:07:18;;;;;;;9.05;1.60;;;;;;;14.13;61.69;98115.47;5016926;28;20107;-49
2023/03/23 08:09:44;;;;;;;14.05;1.45;;;;;;;14.57;60.81;98102.06;5000397;28;20123;-48
2023/03/23 08:12:10;;;;;;;10.60;1.85;;;;;;;15.01;59.39;98112.03;5018491;28;20058;-50
2023/03/23 08:14:35;;;;;;;6.30;1.40;;;;;;;15.49;58.84;98115.63;5017138;28;20041;-48
2023/03/23 08:17:01;;;;;;;7.22;1.50;;;;;;;15.94;58.29;98121.84;5023861;28;21031;-51
2023/03/23 08:19:27;;;;;;;9.18;2.05;;;;;;;16.31;57.54;98128.53;5027095;28;20045;-49
2023/03/23 08:21:53;;;;;;;15.10;1.48;;;;;;;16.42;55.57;98114.88;5024118;28;20076;-49
2023/03/23 08:24:19;;;;;;;8.68;1.45;;;;;;;16.57;56.29;98118.38;5025629;28;20052;-48
2023/03/23 08:26:44;;;;;;;10.70;1.48;;;;;;;16.43;55.33;98116.56;5023110;28;20417;-48
2023/03/23 08:29:10;;;;;;;7.80;1.45;;;;;;;16.51;55.08;98121.34;5032772;28;20053;-48
2023/03/23 08:31:37;;;;;;;11.95;1.23;;;;;;;16.75;55.34;98113.00;5028758;28;20050;-49
2023/03/23 08:34:04;;;;;;;11.38;1.38;;;;;;;17.26;55.59;98114.34;5028994;28;20144;-49
2023/03/23 08:36:31;;;;;;;12.25;1.10;;;;;;;17.84;55.06;98103.78;5029298;28;20045;-52
2023/03/23 08:38:57;;;;;;;13.25;1.25;;;;;;;18.33;53.37;98123.34;5011063;28;20041;-49
2023/03/23 08:41:23;;;;;;;8.07;1.15;;;;;;;18.52;51.77;98114.25;5021964;28;20133;-48
2023/03/23 08:43:49;;;;;;;6.97;1.73;;;;;;;18.44;51.55;98112.13;5025174;28;20138;-49
2023/03/23 08:46:14;;;;;;;16.00;1.60;;;;;;;18.21;51.16;98114.50;5025115;28;20506;-55
2023/03/23 08:48:40;;;;;;;13.40;1.63;;;;;;;17.92;52.57;98106.75;5013856;28;20057;-50
2023/03/23 08:51:06;;;;;;;10.60;0.88;;;;;;;17.79;53.21;98105.81;5025591;28;20560;-52
2023/03/23 08:53:33;;;;;;;11.25;1.50;;;;;;;18.03;52.69;98107.84;5024768;28;20129;-52
2023/03/23 08:56:08;;;;;;;13.98;1.50;;;;;;;17.73;51.49;98107.06;5026900;28;20056;-50
2023/03/23 08:58:34;;;;;;;10.65;1.60;;;;;;;17.36;52.18;98114.63;5026563;28;20053;-51
2023/03/23 09:01:01;;;;;;;15.77;1.63;;;;;;;17.17;53.16;98106.13;5031452;28;20070;-50
2023/03/23 09:03:27;;;;;;;7.53;1.33;;;;;;;17.48;53.37;98108.63;5030842;28;20582;-50
2023/03/23 09:05:53;;;;;;;8.20;1.02;;;;;;;17.94;53.63;98110.09;5024560;28;20053;-49
2023/03/23 09:08:19;;;;;;;9.70;1.67;;;;;;;17.87;52.47;98098.34;5030512;28;20511;-49
2023/03/23 09:10:45;;;;;;;9.45;1.45;;;;;;;18.14;52.34;98105.38;5027664;28;20064;-49
2023/03/23 09:13:11;;;;;;;9.43;1.70;;;;;;;18.61;51.51;98118.06;5025544;28;20046;-49
2023/03/23 09:15:36;;;;;;;9.00;2.15;;;;;;;19.08;51.35;98104.47;5023849;28;20053;-49
2023/03/23 09:18:03;;;;;;;9.15;1.38;;;;;;;19.51;50.02;98106.69;5006018;28;20050;-52
2023/03/23 09:20:29;;;;;;;6.30;1.00;;;;;;;19.83;50.13;98105.34;5006024;28;20045;-50
2023/03/23 09:22:57;;;;;;;8.95;1.25;;;;;;;20.12;49.00;98127.81;5022614;28;20049;-49
2023/03/23 09:25:26;;;;;;;9.43;1.58;;;;;;;19.81;48.08;98116.88;5010404;28;20102;-50
2023/03/23 09:27:56;;;;;;;7.97;1.40;;;;;;;19.61;48.55;98113.91;5011105;28;20049;-51
2023/03/23 09:30:26;;;;;;;10.10;1.58;;;;;;;19.38;48.33;98119.84;5011320;28;20613;-49
2023/03/23 09:32:52;;;;;;;6.75;2.20;;;;;;;19.37;48.18;98125.19;5024492;28;20524;-48
2023/03/23 09:35:21;;;;;;;7.95;1.30;;;;;;;19.38;47.64;98111.13;5028417;28;20152;-51
2023/03/23 09:37:48;;;;;;;11.52;1.17;;;;;;;19.42;47.59;98112.56;5024671;28;20050;-50
2023/03/23 09:40:19;;;;;;;9.75;1.10;;;;;;;19.56;48.39;98129.16;5027848;28;20078;-48
2023/03/23 09:48:33;;;;;;;7.15;1.42;;;;;;;20.01;46.05;98129.47;5047864;27;20907;-50
2023/03/23 09:51:22;;;;;;;6.05;1.30;;;;;;;20.12;47.16;98133.91;5021601;28;20049;-49
2023/03/23 09:53:52;;;;;;;6.68;1.38;;;;;;;19.86;46.30;98130.53;5020974;28;20064;-49
2023/03/23 09:56:20;;;;;;;9.35;1.70;;;;;;;19.56;46.92;98142.28;5022456;28;20042;-51
2023/03/23 10:01:34;;;;;;;4.88;1.65;;;;;;;18.94;46.94;98134.22;5067740;27;20396;-52
2023/03/23 10:04:12;;;;;;;10.30;1.58;;;;;;;18.70;47.56;98135.78;5016497;28;20041;-49
2023/03/23 10:06:38;;;;;;;2.88;1.05;;;;;;;18.53;47.89;98130.81;5065519;28;20076;-53
2023/03/23 10:09:05;;;;;;;6.40;1.60;;;;;;;18.36;48.59;98140.66;5037611;28;20096;-52
2023/03/23 10:14:42;;;;;;;8.02;1.95;;;;;;;17.54;48.84;98115.25;5020853;28;20418;-50
2023/03/23 10:20:08;;;;;;;5.55;0.77;;;;;;;17.19;48.95;98140.88;5049101;27;20390;-49
2023/03/23 10:22:41;;;;;;;6.65;1.30;;;;;;;16.99;50.82;98122.91;5017839;28;20489;-49
2023/03/23 10:38:29;;;;;;;8.88;1.10;;;;;;;15.96;53.05;98136.59;5057918;27;20397;-49
2023/03/23 10:41:01;;;;;;;3.75;0.75;;;;;;;15.90;52.77;98151.66;5047341;28;20033;-50
2023/03/23 10:43:27;;;;;;;9.55;2.38;;;;;;;15.96;53.57;98145.28;5034641;28;20106;-49
2023/03/23 10:46:01;;;;;;;9.60;2.13;;;;;;;16.10;53.76;98152.34;5037992;28;20045;-50
2023/03/23 10:48:32;;;;;;;4.57;0.73;;;;;;;16.17;53.77;98142.41;5034122;28;20080;-49
2023/03/23 10:51:01;;;;;;;8.30;1.27;;;;;;;16.18;53.73;98147.53;5039130;28;20168;-48
2023/03/23 10:53:34;;;;;;;5.50;1.00;;;;;;;16.14;53.38;98164.31;5033811;28;20060;-48
2023/03/23 10:56:00;;;;;;;7.60;2.28;;;;;;;16.06;54.09;98149.09;5034588;28;20493;-49
2023/03/23 10:58:31;;;;;;;10.32;1.90;;;;;;;16.12;54.16;98144.44;5040084;28;20118;-48
2023/03/23 11:00:59;;;;;;;11.40;1.60;;;;;;;16.31;54.67;98144.22;5040451;28;20045;-51
2023/03/23 11:06:05;;;;;;;16.75;1.52;;;;;;;16.87;53.27;98151.47;5034819;27;20941;-52
2023/03/23 11:08:35;;;;;;;5.20;1.00;;;;;;;17.00;52.48;98119.34;5038880;28;20042;-52
2023/03/23 11:11:24;;;;;;;8.82;2.08;;;;;;;16.82;52.20;98138.66;5023832;28;20581;-51
2023/03/23 11:13:57;;;;;;;9.68;1.42;;;;;;;16.73;51.73;98143.59;5016522;28;20177;-51
2023/03/23 11:16:27;;;;;;;7.10;1.45;;;;;;;16.69;52.11;98153.41;5018931;28;20103;-50
2023/03/23 11:18:53;;;;;;;4.07;0.85;;;;;;;16.77;52.95;98150.31;5020662;28;20045;-48
2023/03/23 11:21:22;;;;;;;9.85;1.80;;;;;;;16.87;53.22;98148.88;5018709;28;20077;-48
2023/03/23 11:23:58;;;;;;;8.20;1.88;;;;;;;16.92;53.18;98159.88;5017583;28;20041;-49
2023/03/23 11:26:30;;;;;;;9.98;1.50;;;;;;;16.78;52.60;98141.53;4991881;28;20054;-50
2023/03/23 11:31:36;;;;;;;9.70;2.40;;;;;;;16.48;52.73;98139.81;5052536;27;20386;-50
2023/03/23 11:34:09;;;;;;;4.63;2.10;;;;;;;16.56;53.27;98142.81;4989938;28;20565;-50
2023/03/23 11:36:38;;;;;;;5.97;2.83;;;;;;;16.58;53.29;98131.34;5004909;28;20153;-50
2023/03/23 11:39:21;;;;;;;9.50;2.05;;;;;;;16.57;51.82;98134.91;5021996;28;20053;-50
2023/03/23 11:41:46;;;;;;;;;;;;;;;16.36;52.48;98134.38;5037385;28;20759;-47
2023/03/23 11:44:12;;;;;;;8.77;2.78;;;;;;;16.38;52.49;98135.09;4999576;28;19999;-52
2023/03/23 11:53:05;;;;;;;6.57;0.82;;;;;;;16.83;52.26;98113.38;5070591;27;21423;-49
2023/03/23 11:58:32;;;;;;;7.40;1.05;;;;;;;17.08;52.93;98106.69;5030629;28;20387;-51
2023/03/23 12:06:53;;;;;;;4.63;0.50;;;;;;;17.27;49.92;98116.88;5055584;27;20405;-48
2023/03/23 12:12:16;;;;;;;7.43;1.67;;;;;;;17.20;48.80;98115.56;5005821;28;20777;-49
2023/03/23 12:15:10;;;;;;;10.57;3.38;;;;;;;16.85;50.79;98111.50;5019123;28;20041;-49
2023/03/23 12:25:49;;;;;;;8.63;1.10;;;;;;;16.93;51.04;98101.41;5055583;28;20422;-49
2023/03/23 12:37:11;;;;;;;5.15;0.88;;;;;;;16.80;52.42;98095.25;5020562;28;20385;-49
2023/03/23 12:42:48;;;;;;;5.95;2.85;;;;;;;16.78;51.43;98089.25;5042556;27;20409;-50
2023/03/23 12:48:01;;;;;;;4.85;1.10;;;;;;;16.40;52.40;98107.13;5017126;27;20411;-50
2023/03/23 12:53:13;;;;;;;4.28;1.02;;;;;;;15.84;54.66;98136.31;5063577;27;20739;-50
2023/03/23 12:58:27;;;;;;;8.93;1.33;;;;;;;15.40;57.51;98112.59;5055918;28;20409;-50
2023/03/23 13:01:00;;;;;;;4.40;1.42;;;;;;;15.36;58.32;98098.03;5018063;28;20049;-49
2023/03/23 13:06:19;;;;;;;7.10;1.15;;;;;;;15.46;59.63;98090.53;5076907;27;20110;-48
2023/03/23 13:11:43;;;;;;;5.00;0.88;;;;;;;15.67;59.25;98088.53;5023696;27;21022;-52
2023/03/23 13:14:37;;;;;;;5.90;2.03;;;;;;;15.58;58.93;98078.59;5003718;28;20490;-50
2023/03/23 13:17:26;;;;;;;8.35;3.13;;;;;;;15.53;59.21;98081.47;5006361;28;20125;-53
2023/03/23 13:28:20;;;;;;;7.53;1.20;;;;;;;15.79;60.15;98062.66;5098389;27;20908;-50
2023/03/23 13:31:13;;;;;;;8.90;2.17;;;;;;;15.81;60.46;98058.22;5034938;28;20053;-49
2023/03/23 13:33:45;;;;;;;9.07;2.30;;;;;;;15.96;60.51;98068.72;5044778;28;20060;-49
2023/03/23 13:36:13;;;;;;;6.50;2.65;;;;;;;16.00;59.78;98062.41;5039322;28;20037;-53
2023/03/23 13:38:47;;;;;;;7.18;2.33;;;;;;;16.05;60.40;98060.38;5019050;28;20072;-52
2023/03/23 13:41:15;;;;;;;7.60;2.85;;;;;;;16.06;59.45;98051.63;5032553;28;20493;-53
2023/03/23 13:43:44;;;;;;;7.65;1.88;;;;;;;16.04;59.85;98048.25;5035512;28;20503;-49